sensor_id;sensor_type;location;lat;lon;timestamp;temperature;humidity
2389;DHT22;1205;47.984;7.668;2023-06-26T00:02:16;22.00;91.60
2389;DHT22;1205;47.984;7.668;2023-06-26T00:04:43;21.80;92.30
2389;DHT22;1205;47.984;7.668;2023-06-26T00:07:09;21.60;93.20
2389;DHT22;1205;47.984;7.668;2023-06-26T00:09:34;21.50;93.80
2389;DHT22;1205;47.984;7.668;2023-06-26T00:12:00;21.40;94.10
2389;DHT22;1205;47.984;7.668;2023-06-26T00:14:26;21.60;93.80
2389;DHT22;1205;47.984;7.668;2023-06-26T00:16:52;21.60;93.90
2389;DHT22;1205;47.984;7.668;2023-06-26T00:19:18;21.70;93.70
2389;DHT22;1205;47.984;7.668;2023-06-26T00:21:43;21.70;93.40
2389;DHT22;1205;47.984;7.668;2023-06-26T00:24:16;21.40;93.80
2389;DHT22;1205;47.984;7.668;2023-06-26T00:26:42;21.30;94.50
2389;DHT22;1205;47.984;7.668;2023-06-26T00:29:08;21.30;94.50
2389;DHT22;1205;47.984;7.668;2023-06-26T00:31:33;21.50;94.30
2389;DHT22;1205;47.984;7.668;2023-06-26T00:34:00;21.60;94.20
2389;DHT22;1205;47.984;7.668;2023-06-26T00:36:26;21.60;94.30
2389;DHT22;1205;47.984;7.668;2023-06-26T00:38:52;21.60;94.50
2389;DHT22;1205;47.984;7.668;2023-06-26T00:41:18;21.40;94.40
2389;DHT22;1205;47.984;7.668;2023-06-26T00:43:44;21.20;94.70
2389;DHT22;1205;47.984;7.668;2023-06-26T00:46:12;21.40;95.10
2389;DHT22;1205;47.984;7.668;2023-06-26T00:48:39;21.50;95.00
2389;DHT22;1205;47.984;7.668;2023-06-26T00:51:06;21.60;94.90
2389;DHT22;1205;47.984;7.668;2023-06-26T00:53:33;21.60;94.80
2389;DHT22;1205;47.984;7.668;2023-06-26T00:55:59;21.60;94.70
2389;DHT22;1205;47.984;7.668;2023-06-26T00:58:25;21.60;94.60
2389;DHT22;1205;47.984;7.668;2023-06-26T01:00:51;21.60;94.80
2389;DHT22;1205;47.984;7.668;2023-06-26T01:03:22;21.50;94.70
2389;DHT22;1205;47.984;7.668;2023-06-26T01:05:48;21.60;94.70
2389;DHT22;1205;47.984;7.668;2023-06-26T01:08:16;21.20;94.70
2389;DHT22;1205;47.984;7.668;2023-06-26T01:10:42;21.00;95.20
2389;DHT22;1205;47.984;7.668;2023-06-26T01:13:08;21.10;95.60
2389;DHT22;1205;47.984;7.668;2023-06-26T01:15:34;21.30;95.50
2389;DHT22;1205;47.984;7.668;2023-06-26T01:18:00;21.40;95.50
2389;DHT22;1205;47.984;7.668;2023-06-26T01:20:30;21.40;95.50
2389;DHT22;1205;47.984;7.668;2023-06-26T01:23:29;21.30;95.70
2389;DHT22;1205;47.984;7.668;2023-06-26T01:28:39;21.30;95.70
2389;DHT22;1205;47.984;7.668;2023-06-26T01:31:07;21.30;95.70
2389;DHT22;1205;47.984;7.668;2023-06-26T01:33:32;21.40;95.80
2389;DHT22;1205;47.984;7.668;2023-06-26T01:35:58;21.10;95.80
2389;DHT22;1205;47.984;7.668;2023-06-26T01:38:24;21.00;96.10
2389;DHT22;1205;47.984;7.668;2023-06-26T01:40:51;20.70;96.40
2389;DHT22;1205;47.984;7.668;2023-06-26T01:46:09;20.30;97.20
2389;DHT22;1205;47.984;7.668;2023-06-26T01:49:12;20.50;97.40
2389;DHT22;1205;47.984;7.668;2023-06-26T01:52:05;20.70;97.10
2389;DHT22;1205;47.984;7.668;2023-06-26T01:54:39;20.70;97.10
2389;DHT22;1205;47.984;7.668;2023-06-26T01:57:08;20.80;97.10
2389;DHT22;1205;47.984;7.668;2023-06-26T01:59:35;20.80;96.70
2389;DHT22;1205;47.984;7.668;2023-06-26T02:02:02;20.40;97.30
2389;DHT22;1205;47.984;7.668;2023-06-26T02:04:28;20.20;98.00
2389;DHT22;1205;47.984;7.668;2023-06-26T02:06:54;20.00;98.50
2389;DHT22;1205;47.984;7.668;2023-06-26T02:09:20;20.10;98.80
2389;DHT22;1205;47.984;7.668;2023-06-26T02:11:45;20.40;98.40
2389;DHT22;1205;47.984;7.668;2023-06-26T02:14:11;20.50;98.10
2389;DHT22;1205;47.984;7.668;2023-06-26T02:16:37;20.60;97.70
2389;DHT22;1205;47.984;7.668;2023-06-26T02:19:03;20.70;97.60
2389;DHT22;1205;47.984;7.668;2023-06-26T02:21:28;20.60;97.30
2389;DHT22;1205;47.984;7.668;2023-06-26T02:23:54;20.40;97.50
2389;DHT22;1205;47.984;7.668;2023-06-26T02:26:19;20.50;97.70
2389;DHT22;1205;47.984;7.668;2023-06-26T02:28:46;20.50;97.80
2389;DHT22;1205;47.984;7.668;2023-06-26T02:31:11;20.30;98.00
2389;DHT22;1205;47.984;7.668;2023-06-26T02:33:43;20.10;98.30
2389;DHT22;1205;47.984;7.668;2023-06-26T02:36:10;19.90;98.40
2389;DHT22;1205;47.984;7.668;2023-06-26T02:38:36;19.70;99.10
2389;DHT22;1205;47.984;7.668;2023-06-26T02:41:01;19.60;99.80
2389;DHT22;1205;47.984;7.668;2023-06-26T02:43:27;19.50;99.90
2389;DHT22;1205;47.984;7.668;2023-06-26T02:45:53;19.50;99.90
2389;DHT22;1205;47.984;7.668;2023-06-26T02:48:18;19.50;99.90
2389;DHT22;1205;47.984;7.668;2023-06-26T02:50:44;19.50;99.90
2389;DHT22;1205;47.984;7.668;2023-06-26T02:53:12;19.40;99.90
2389;DHT22;1205;47.984;7.668;2023-06-26T02:55:37;19.40;99.90
2389;DHT22;1205;47.984;7.668;2023-06-26T02:58:03;19.50;99.90
2389;DHT22;1205;47.984;7.668;2023-06-26T03:00:28;19.50;99.90
2389;DHT22;1205;47.984;7.668;2023-06-26T03:02:55;19.50;99.90
2389;DHT22;1205;47.984;7.668;2023-06-26T03:05:20;19.50;99.90
2389;DHT22;1205;47.984;7.668;2023-06-26T03:07:46;19.40;99.90
2389;DHT22;1205;47.984;7.668;2023-06-26T03:10:12;19.30;99.90
2389;DHT22;1205;47.984;7.668;2023-06-26T03:12:37;19.20;99.90
2389;DHT22;1205;47.984;7.668;2023-06-26T03:15:03;19.20;99.90
2389;DHT22;1205;47.984;7.668;2023-06-26T03:17:29;19.20;99.90
2389;DHT22;1205;47.984;7.668;2023-06-26T03:19:54;19.10;99.90
2389;DHT22;1205;47.984;7.668;2023-06-26T03:22:20;19.10;99.90
2389;DHT22;1205;47.984;7.668;2023-06-26T03:24:45;19.10;99.90
2389;DHT22;1205;47.984;7.668;2023-06-26T03:27:11;19.10;99.90
2389;DHT22;1205;47.984;7.668;2023-06-26T03:29:37;19.10;99.90
2389;DHT22;1205;47.984;7.668;2023-06-26T03:32:03;19.00;99.90
2389;DHT22;1205;47.984;7.668;2023-06-26T03:34:28;19.10;99.90
2389;DHT22;1205;47.984;7.668;2023-06-26T03:36:54;19.00;99.90
2389;DHT22;1205;47.984;7.668;2023-06-26T03:39:19;19.00;99.90
2389;DHT22;1205;47.984;7.668;2023-06-26T03:41:45;19.00;99.90
2389;DHT22;1205;47.984;7.668;2023-06-26T03:44:10;19.10;99.90
2389;DHT22;1205;47.984;7.668;2023-06-26T03:46:36;19.10;99.90
2389;DHT22;1205;47.984;7.668;2023-06-26T03:49:01;19.10;99.90
2389;DHT22;1205;47.984;7.668;2023-06-26T03:51:27;19.10;99.90
2389;DHT22;1205;47.984;7.668;2023-06-26T03:53:53;19.10;99.90
2389;DHT22;1205;47.984;7.668;2023-06-26T03:56:18;19.10;99.90
2389;DHT22;1205;47.984;7.668;2023-06-26T03:58:44;19.20;99.90
2389;DHT22;1205;47.984;7.668;2023-06-26T04:01:10;19.20;99.90
2389;DHT22;1205;47.984;7.668;2023-06-26T04:03:35;19.30;99.90
2389;DHT22;1205;47.984;7.668;2023-06-26T04:06:01;19.30;99.90
2389;DHT22;1205;47.984;7.668;2023-06-26T04:08:26;19.50;99.90
2389;DHT22;1205;47.984;7.668;2023-06-26T04:10:52;19.40;99.90
2389;DHT22;1205;47.984;7.668;2023-06-26T04:13:19;19.40;99.90
2389;DHT22;1205;47.984;7.668;2023-06-26T04:15:44;19.40;99.90
2389;DHT22;1205;47.984;7.668;2023-06-26T04:18:10;19.50;99.90
2389;DHT22;1205;47.984;7.668;2023-06-26T04:21:03;19.40;99.90
2389;DHT22;1205;47.984;7.668;2023-06-26T04:23:25;19.40;99.90
2389;DHT22;1205;47.984;7.668;2023-06-26T04:25:51;19.40;99.90
2389;DHT22;1205;47.984;7.668;2023-06-26T04:28:16;19.50;99.90
2389;DHT22;1205;47.984;7.668;2023-06-26T04:30:42;19.50;99.90
2389;DHT22;1205;47.984;7.668;2023-06-26T04:33:07;19.50;99.90
2389;DHT22;1205;47.984;7.668;2023-06-26T04:35:37;19.50;99.90
2389;DHT22;1205;47.984;7.668;2023-06-26T04:38:02;19.60;99.90
2389;DHT22;1205;47.984;7.668;2023-06-26T04:40:28;20.10;99.90
2389;DHT22;1205;47.984;7.668;2023-06-26T04:42:53;20.40;99.90
2389;DHT22;1205;47.984;7.668;2023-06-26T04:45:19;20.80;99.90
2389;DHT22;1205;47.984;7.668;2023-06-26T04:47:44;21.20;99.90
2389;DHT22;1205;47.984;7.668;2023-06-26T04:50:10;21.50;99.90
2389;DHT22;1205;47.984;7.668;2023-06-26T04:52:35;21.80;99.70
2389;DHT22;1205;47.984;7.668;2023-06-26T04:55:01;22.30;99.20
2389;DHT22;1205;47.984;7.668;2023-06-26T04:57:27;22.60;98.30
2389;DHT22;1205;47.984;7.668;2023-06-26T04:59:52;23.00;97.70
2389;DHT22;1205;47.984;7.668;2023-06-26T05:02:18;23.40;97.30
2389;DHT22;1205;47.984;7.668;2023-06-26T05:04:43;23.80;96.70
2389;DHT22;1205;47.984;7.668;2023-06-26T05:07:09;24.10;96.20
2389;DHT22;1205;47.984;7.668;2023-06-26T05:09:35;24.30;95.30
2389;DHT22;1205;47.984;7.668;2023-06-26T05:12:02;24.60;95.20
2389;DHT22;1205;47.984;7.668;2023-06-26T05:14:28;24.90;94.40
2389;DHT22;1205;47.984;7.668;2023-06-26T05:16:53;25.30;94.20
2389;DHT22;1205;47.984;7.668;2023-06-26T05:19:19;25.60;94.10
2389;DHT22;1205;47.984;7.668;2023-06-26T05:21:44;25.90;93.40
2389;DHT22;1205;47.984;7.668;2023-06-26T05:24:12;26.20;92.90
2389;DHT22;1205;47.984;7.668;2023-06-26T05:26:38;26.50;92.40
2389;DHT22;1205;47.984;7.668;2023-06-26T05:29:04;26.70;91.70
2389;DHT22;1205;47.984;7.668;2023-06-26T05:31:32;26.90;91.10
2389;DHT22;1205;47.984;7.668;2023-06-26T05:34:01;27.20;91.10
2389;DHT22;1205;47.984;7.668;2023-06-26T05:36:28;27.40;91.20
2389;DHT22;1205;47.984;7.668;2023-06-26T05:38:54;27.60;90.90
2389;DHT22;1205;47.984;7.668;2023-06-26T05:41:22;27.90;90.50
2389;DHT22;1205;47.984;7.668;2023-06-26T05:43:47;28.30;90.50
2389;DHT22;1205;47.984;7.668;2023-06-26T05:46:13;28.40;90.00
2389;DHT22;1205;47.984;7.668;2023-06-26T05:48:39;28.60;89.40
2389;DHT22;1205;47.984;7.668;2023-06-26T05:51:05;28.80;89.70
2389;DHT22;1205;47.984;7.668;2023-06-26T05:53:31;29.00;89.50
2389;DHT22;1205;47.984;7.668;2023-06-26T05:55:57;29.10;88.80
2389;DHT22;1205;47.984;7.668;2023-06-26T05:58:24;29.30;88.90
2389;DHT22;1205;47.984;7.668;2023-06-26T06:00:51;29.50;88.40
2389;DHT22;1205;47.984;7.668;2023-06-26T06:03:16;29.70;87.20
2389;DHT22;1205;47.984;7.668;2023-06-26T06:05:42;29.90;87.40
2389;DHT22;1205;47.984;7.668;2023-06-26T06:08:07;30.10;87.00
2389;DHT22;1205;47.984;7.668;2023-06-26T06:10:33;30.30;86.60
2389;DHT22;1205;47.984;7.668;2023-06-26T06:12:58;30.40;84.50
2389;DHT22;1205;47.984;7.668;2023-06-26T06:15:24;30.60;84.10
2389;DHT22;1205;47.984;7.668;2023-06-26T06:17:50;30.60;82.10
2389;DHT22;1205;47.984;7.668;2023-06-26T06:20:17;30.80;82.00
2389;DHT22;1205;47.984;7.668;2023-06-26T06:22:45;30.90;80.10
2389;DHT22;1205;47.984;7.668;2023-06-26T06:25:10;30.90;79.70
2389;DHT22;1205;47.984;7.668;2023-06-26T06:27:36;31.20;80.10
2389;DHT22;1205;47.984;7.668;2023-06-26T06:30:01;31.40;78.70
2389;DHT22;1205;47.984;7.668;2023-06-26T06:32:28;31.60;78.50
2389;DHT22;1205;47.984;7.668;2023-06-26T06:34:53;31.90;78.20
2389;DHT22;1205;47.984;7.668;2023-06-26T06:37:19;32.00;78.00
2389;DHT22;1205;47.984;7.668;2023-06-26T06:39:44;32.20;77.50
2389;DHT22;1205;47.984;7.668;2023-06-26T06:42:10;32.30;77.20
2389;DHT22;1205;47.984;7.668;2023-06-26T06:44:35;32.30;76.80
2389;DHT22;1205;47.984;7.668;2023-06-26T06:47:01;32.60;75.00
2389;DHT22;1205;47.984;7.668;2023-06-26T06:49:26;32.70;75.60
2389;DHT22;1205;47.984;7.668;2023-06-26T06:51:52;32.80;73.30
2389;DHT22;1205;47.984;7.668;2023-06-26T06:54:18;32.70;73.00
2389;DHT22;1205;47.984;7.668;2023-06-26T06:56:45;32.50;73.80
2389;DHT22;1205;47.984;7.668;2023-06-26T06:59:10;32.60;74.20
2389;DHT22;1205;47.984;7.668;2023-06-26T07:01:36;32.70;74.50
2389;DHT22;1205;47.984;7.668;2023-06-26T07:04:02;32.80;74.60
2389;DHT22;1205;47.984;7.668;2023-06-26T07:06:29;33.00;75.00
2389;DHT22;1205;47.984;7.668;2023-06-26T07:08:55;33.40;73.40
2389;DHT22;1205;47.984;7.668;2023-06-26T07:11:20;33.40;73.70
2389;DHT22;1205;47.984;7.668;2023-06-26T07:13:46;33.60;73.40
2389;DHT22;1205;47.984;7.668;2023-06-26T07:16:11;33.80;72.50
2389;DHT22;1205;47.984;7.668;2023-06-26T07:18:38;34.00;72.60
2389;DHT22;1205;47.984;7.668;2023-06-26T07:21:03;34.20;73.20
2389;DHT22;1205;47.984;7.668;2023-06-26T07:23:29;34.30;73.20
2389;DHT22;1205;47.984;7.668;2023-06-26T07:25:55;34.70;72.80
2389;DHT22;1205;47.984;7.668;2023-06-26T07:28:20;34.90;71.30
2389;DHT22;1205;47.984;7.668;2023-06-26T07:30:46;35.00;71.50
2389;DHT22;1205;47.984;7.668;2023-06-26T07:33:11;35.10;71.60
2389;DHT22;1205;47.984;7.668;2023-06-26T07:35:37;35.10;71.90
2389;DHT22;1205;47.984;7.668;2023-06-26T07:38:03;34.60;71.00
2389;DHT22;1205;47.984;7.668;2023-06-26T07:40:28;34.70;71.80
2389;DHT22;1205;47.984;7.668;2023-06-26T07:42:54;34.10;71.00
2389;DHT22;1205;47.984;7.668;2023-06-26T07:45:19;34.60;71.10
2389;DHT22;1205;47.984;7.668;2023-06-26T07:47:45;34.10;70.70
2389;DHT22;1205;47.984;7.668;2023-06-26T07:50:11;33.70;72.50
2389;DHT22;1205;47.984;7.668;2023-06-26T07:52:37;33.40;72.00
2389;DHT22;1205;47.984;7.668;2023-06-26T07:55:03;33.60;73.50
2389;DHT22;1205;47.984;7.668;2023-06-26T07:57:29;33.90;73.30
2389;DHT22;1205;47.984;7.668;2023-06-26T07:59:55;33.60;73.60
2389;DHT22;1205;47.984;7.668;2023-06-26T08:02:21;34.00;73.90
2389;DHT22;1205;47.984;7.668;2023-06-26T08:04:47;33.40;72.60
2389;DHT22;1205;47.984;7.668;2023-06-26T08:07:12;33.70;73.50
2389;DHT22;1205;47.984;7.668;2023-06-26T08:09:39;33.60;73.30
2389;DHT22;1205;47.984;7.668;2023-06-26T08:12:05;33.30;73.00
2389;DHT22;1205;47.984;7.668;2023-06-26T08:14:31;32.90;73.90
2389;DHT22;1205;47.984;7.668;2023-06-26T08:16:57;32.50;73.80
2389;DHT22;1205;47.984;7.668;2023-06-26T08:19:22;32.30;75.00
2389;DHT22;1205;47.984;7.668;2023-06-26T08:21:48;32.40;76.50
2389;DHT22;1205;47.984;7.668;2023-06-26T08:24:14;33.00;75.10
2389;DHT22;1205;47.984;7.668;2023-06-26T08:26:42;33.20;74.40
2389;DHT22;1205;47.984;7.668;2023-06-26T08:29:08;33.40;73.50
2389;DHT22;1205;47.984;7.668;2023-06-26T08:31:37;33.60;74.40
2389;DHT22;1205;47.984;7.668;2023-06-26T08:34:07;33.60;72.60
2389;DHT22;1205;47.984;7.668;2023-06-26T08:36:36;33.70;72.50
2389;DHT22;1205;47.984;7.668;2023-06-26T08:39:01;33.80;71.60
2389;DHT22;1205;47.984;7.668;2023-06-26T08:41:28;33.90;73.30
2389;DHT22;1205;47.984;7.668;2023-06-26T08:43:53;34.20;72.90
2389;DHT22;1205;47.984;7.668;2023-06-26T08:46:20;33.20;71.00
2389;DHT22;1205;47.984;7.668;2023-06-26T08:48:49;33.40;71.50
2389;DHT22;1205;47.984;7.668;2023-06-26T08:51:17;34.20;72.30
2389;DHT22;1205;47.984;7.668;2023-06-26T08:53:58;34.70;70.20
2389;DHT22;1205;47.984;7.668;2023-06-26T08:56:44;35.00;70.30
2389;DHT22;1205;47.984;7.668;2023-06-26T08:59:10;35.10;71.20
2389;DHT22;1205;47.984;7.668;2023-06-26T09:01:38;35.00;69.30
2389;DHT22;1205;47.984;7.668;2023-06-26T09:04:04;33.80;69.00
2389;DHT22;1205;47.984;7.668;2023-06-26T09:06:29;32.60;71.60
2389;DHT22;1205;47.984;7.668;2023-06-26T09:08:55;32.00;72.90
2389;DHT22;1205;47.984;7.668;2023-06-26T09:11:21;32.80;74.40
2389;DHT22;1205;47.984;7.668;2023-06-26T09:13:46;32.50;72.50
2389;DHT22;1205;47.984;7.668;2023-06-26T09:16:13;31.70;73.00
2389;DHT22;1205;47.984;7.668;2023-06-26T09:18:40;31.40;74.40
2389;DHT22;1205;47.984;7.668;2023-06-26T09:21:08;31.30;75.00
2389;DHT22;1205;47.984;7.668;2023-06-26T09:23:35;31.00;76.20
2389;DHT22;1205;47.984;7.668;2023-06-26T09:26:05;31.00;76.30
2389;DHT22;1205;47.984;7.668;2023-06-26T09:28:32;30.50;76.50
2389;DHT22;1205;47.984;7.668;2023-06-26T09:31:07;30.40;77.50
2389;DHT22;1205;47.984;7.668;2023-06-26T09:33:37;29.70;77.60
2389;DHT22;1205;47.984;7.668;2023-06-26T09:36:06;29.60;78.50
2389;DHT22;1205;47.984;7.668;2023-06-26T09:38:34;29.00;79.50
2389;DHT22;1205;47.984;7.668;2023-06-26T09:41:00;29.20;79.70
2389;DHT22;1205;47.984;7.668;2023-06-26T09:43:26;29.50;80.40
2389;DHT22;1205;47.984;7.668;2023-06-26T09:45:52;29.90;78.30
2389;DHT22;1205;47.984;7.668;2023-06-26T09:48:19;30.30;80.20
2389;DHT22;1205;47.984;7.668;2023-06-26T09:50:46;31.00;79.50
2389;DHT22;1205;47.984;7.668;2023-06-26T09:53:12;31.30;77.80
2389;DHT22;1205;47.984;7.668;2023-06-26T09:55:43;31.70;76.20
2389;DHT22;1205;47.984;7.668;2023-06-26T09:58:11;31.40;76.10
2389;DHT22;1205;47.984;7.668;2023-06-26T10:00:43;31.00;76.60
2389;DHT22;1205;47.984;7.668;2023-06-26T10:03:10;30.60;77.30
2389;DHT22;1205;47.984;7.668;2023-06-26T10:05:38;31.10;78.30
2389;DHT22;1205;47.984;7.668;2023-06-26T10:08:05;30.80;78.60
2389;DHT22;1205;47.984;7.668;2023-06-26T10:10:36;31.00;78.00
2389;DHT22;1205;47.984;7.668;2023-06-26T10:13:11;31.00;77.80
2389;DHT22;1205;47.984;7.668;2023-06-26T10:15:37;30.20;78.50
2389;DHT22;1205;47.984;7.668;2023-06-26T10:18:03;29.90;79.30
2389;DHT22;1205;47.984;7.668;2023-06-26T10:20:29;29.90;80.00
2389;DHT22;1205;47.984;7.668;2023-06-26T10:22:57;30.50;80.10
2389;DHT22;1205;47.984;7.668;2023-06-26T10:25:26;30.60;78.00
2389;DHT22;1205;47.984;7.668;2023-06-26T10:27:57;30.30;78.60
2389;DHT22;1205;47.984;7.668;2023-06-26T10:30:27;29.90;79.30
2389;DHT22;1205;47.984;7.668;2023-06-26T10:32:55;30.00;79.10
2389;DHT22;1205;47.984;7.668;2023-06-26T10:35:21;29.80;79.90
2389;DHT22;1205;47.984;7.668;2023-06-26T10:37:49;29.80;79.90
2389;DHT22;1205;47.984;7.668;2023-06-26T10:40:22;30.10;80.90
2389;DHT22;1205;47.984;7.668;2023-06-26T10:42:47;30.20;79.80
2389;DHT22;1205;47.984;7.668;2023-06-26T10:45:15;30.50;80.70
2389;DHT22;1205;47.984;7.668;2023-06-26T10:47:42;30.90;80.10
2389;DHT22;1205;47.984;7.668;2023-06-26T10:50:28;31.30;80.40
2389;DHT22;1205;47.984;7.668;2023-06-26T10:53:21;31.40;79.20
2389;DHT22;1205;47.984;7.668;2023-06-26T10:55:58;31.30;79.70
2389;DHT22;1205;47.984;7.668;2023-06-26T10:58:40;31.30;78.50
2389;DHT22;1205;47.984;7.668;2023-06-26T11:06:20;30.90;77.80
2389;DHT22;1205;47.984;7.668;2023-06-26T11:11:15;31.30;78.10
2389;DHT22;1205;47.984;7.668;2023-06-26T11:13:41;31.30;77.50
2389;DHT22;1205;47.984;7.668;2023-06-26T11:16:07;31.50;77.40
2389;DHT22;1205;47.984;7.668;2023-06-26T11:18:33;31.60;77.30
2389;DHT22;1205;47.984;7.668;2023-06-26T11:21:09;31.50;77.20
2389;DHT22;1205;47.984;7.668;2023-06-26T11:23:36;31.50;77.80
2389;DHT22;1205;47.984;7.668;2023-06-26T11:26:20;31.50;77.20
2389;DHT22;1205;47.984;7.668;2023-06-26T11:28:56;31.30;77.10
2389;DHT22;1205;47.984;7.668;2023-06-26T11:34:02;31.20;77.00
2389;DHT22;1205;47.984;7.668;2023-06-26T11:36:29;30.90;77.50
2389;DHT22;1205;47.984;7.668;2023-06-26T11:39:02;31.00;77.50
2389;DHT22;1205;47.984;7.668;2023-06-26T11:41:30;31.00;77.50
2389;DHT22;1205;47.984;7.668;2023-06-26T11:43:56;31.00;77.10
2389;DHT22;1205;47.984;7.668;2023-06-26T11:46:25;31.10;77.50
2389;DHT22;1205;47.984;7.668;2023-06-26T11:48:51;30.90;76.90
2389;DHT22;1205;47.984;7.668;2023-06-26T11:51:17;31.00;76.80
2389;DHT22;1205;47.984;7.668;2023-06-26T11:53:44;31.10;76.20
2389;DHT22;1205;47.984;7.668;2023-06-26T11:56:10;30.90;76.80
2389;DHT22;1205;47.984;7.668;2023-06-26T12:01:34;30.80;76.40
2389;DHT22;1205;47.984;7.668;2023-06-26T12:04:01;30.80;77.00
2389;DHT22;1205;47.984;7.668;2023-06-26T12:06:29;30.80;76.80
2389;DHT22;1205;47.984;7.668;2023-06-26T12:08:58;30.90;76.90
2389;DHT22;1205;47.984;7.668;2023-06-26T12:11:25;30.60;76.60
2389;DHT22;1205;47.984;7.668;2023-06-26T12:13:51;30.60;76.40
2389;DHT22;1205;47.984;7.668;2023-06-26T12:16:17;30.80;76.20
2389;DHT22;1205;47.984;7.668;2023-06-26T12:18:42;31.00;76.50
2389;DHT22;1205;47.984;7.668;2023-06-26T12:21:08;31.10;76.20
2389;DHT22;1205;47.984;7.668;2023-06-26T12:23:39;31.10;76.00
2389;DHT22;1205;47.984;7.668;2023-06-26T12:26:20;31.10;75.40
2389;DHT22;1205;47.984;7.668;2023-06-26T12:28:47;31.10;75.20
2389;DHT22;1205;47.984;7.668;2023-06-26T12:31:16;31.00;75.20
2389;DHT22;1205;47.984;7.668;2023-06-26T12:33:45;31.10;75.30
2389;DHT22;1205;47.984;7.668;2023-06-26T12:36:13;31.30;75.20
2389;DHT22;1205;47.984;7.668;2023-06-26T12:38:40;31.30;74.40
2389;DHT22;1205;47.984;7.668;2023-06-26T12:41:15;31.50;74.20
2389;DHT22;1205;47.984;7.668;2023-06-26T12:43:42;31.30;73.80
2389;DHT22;1205;47.984;7.668;2023-06-26T12:46:07;31.50;74.10
2389;DHT22;1205;47.984;7.668;2023-06-26T12:51:09;31.30;73.90
2389;DHT22;1205;47.984;7.668;2023-06-26T12:53:35;31.20;72.80
2389;DHT22;1205;47.984;7.668;2023-06-26T12:56:01;31.20;72.50
2389;DHT22;1205;47.984;7.668;2023-06-26T12:58:26;31.20;72.40
2389;DHT22;1205;47.984;7.668;2023-06-26T13:00:52;31.00;73.10
2389;DHT22;1205;47.984;7.668;2023-06-26T13:03:19;30.90;72.50
2389;DHT22;1205;47.984;7.668;2023-06-26T13:05:46;31.00;72.40
2389;DHT22;1205;47.984;7.668;2023-06-26T13:08:12;30.90;72.80
2389;DHT22;1205;47.984;7.668;2023-06-26T13:10:38;30.90;72.70
2389;DHT22;1205;47.984;7.668;2023-06-26T13:13:05;30.90;72.30
2389;DHT22;1205;47.984;7.668;2023-06-26T13:15:30;31.00;72.10
2389;DHT22;1205;47.984;7.668;2023-06-26T13:17:56;31.00;72.60
2389;DHT22;1205;47.984;7.668;2023-06-26T13:20:21;31.10;72.60
2389;DHT22;1205;47.984;7.668;2023-06-26T13:22:47;31.10;73.30
2389;DHT22;1205;47.984;7.668;2023-06-26T13:25:12;31.00;72.50
2389;DHT22;1205;47.984;7.668;2023-06-26T13:27:38;30.90;72.90
2389;DHT22;1205;47.984;7.668;2023-06-26T13:30:04;30.80;72.60
2389;DHT22;1205;47.984;7.668;2023-06-26T13:32:30;30.90;72.30
2389;DHT22;1205;47.984;7.668;2023-06-26T13:34:55;30.80;72.60
2389;DHT22;1205;47.984;7.668;2023-06-26T13:37:21;30.90;71.90
2389;DHT22;1205;47.984;7.668;2023-06-26T13:39:46;31.10;72.30
2389;DHT22;1205;47.984;7.668;2023-06-26T13:42:16;31.10;70.70
2389;DHT22;1205;47.984;7.668;2023-06-26T13:44:42;31.30;70.30
2389;DHT22;1205;47.984;7.668;2023-06-26T13:47:07;31.70;71.10
2389;DHT22;1205;47.984;7.668;2023-06-26T13:49:33;31.50;68.90
2389;DHT22;1205;47.984;7.668;2023-06-26T13:51:58;31.60;69.20
2389;DHT22;1205;47.984;7.668;2023-06-26T13:54:24;31.50;68.70
2389;DHT22;1205;47.984;7.668;2023-06-26T13:56:49;31.40;69.10
2389;DHT22;1205;47.984;7.668;2023-06-26T13:59:15;31.50;68.30
2389;DHT22;1205;47.984;7.668;2023-06-26T14:01:41;31.60;68.30
2389;DHT22;1205;47.984;7.668;2023-06-26T14:04:09;31.40;68.30
2389;DHT22;1205;47.984;7.668;2023-06-26T14:06:34;31.40;68.50
2389;DHT22;1205;47.984;7.668;2023-06-26T14:09:00;31.30;68.20
2389;DHT22;1205;47.984;7.668;2023-06-26T14:11:26;31.30;68.80
2389;DHT22;1205;47.984;7.668;2023-06-26T14:13:51;31.20;68.40
2389;DHT22;1205;47.984;7.668;2023-06-26T14:16:17;31.10;68.10
2389;DHT22;1205;47.984;7.668;2023-06-26T14:18:44;31.20;69.20
2389;DHT22;1205;47.984;7.668;2023-06-26T14:21:09;31.20;69.10
2389;DHT22;1205;47.984;7.668;2023-06-26T14:23:35;31.20;68.90
2389;DHT22;1205;47.984;7.668;2023-06-26T14:26:00;31.10;68.30
2389;DHT22;1205;47.984;7.668;2023-06-26T14:28:26;31.10;68.00
2389;DHT22;1205;47.984;7.668;2023-06-26T14:30:51;30.90;68.70
2389;DHT22;1205;47.984;7.668;2023-06-26T14:33:17;30.90;68.60
2389;DHT22;1205;47.984;7.668;2023-06-26T14:35:42;31.00;68.00
2389;DHT22;1205;47.984;7.668;2023-06-26T14:38:08;31.00;68.90
2389;DHT22;1205;47.984;7.668;2023-06-26T14:40:33;31.00;68.50
2389;DHT22;1205;47.984;7.668;2023-06-26T14:42:59;30.90;68.60
2389;DHT22;1205;47.984;7.668;2023-06-26T14:45:25;30.80;69.10
2389;DHT22;1205;47.984;7.668;2023-06-26T14:47:50;30.90;68.50
2389;DHT22;1205;47.984;7.668;2023-06-26T14:50:16;30.90;69.60
2389;DHT22;1205;47.984;7.668;2023-06-26T14:52:41;30.70;69.00
2389;DHT22;1205;47.984;7.668;2023-06-26T14:55:07;30.90;69.20
2389;DHT22;1205;47.984;7.668;2023-06-26T14:57:33;30.90;68.60
2389;DHT22;1205;47.984;7.668;2023-06-26T14:59:58;30.70;69.10
2389;DHT22;1205;47.984;7.668;2023-06-26T15:02:24;30.50;68.30
2389;DHT22;1205;47.984;7.668;2023-06-26T15:04:49;30.40;68.00
2389;DHT22;1205;47.984;7.668;2023-06-26T15:07:15;30.50;68.80
2389;DHT22;1205;47.984;7.668;2023-06-26T15:09:40;30.60;68.00
2389;DHT22;1205;47.984;7.668;2023-06-26T15:12:07;30.70;68.60
2389;DHT22;1205;47.984;7.668;2023-06-26T15:14:33;30.60;67.30
2389;DHT22;1205;47.984;7.668;2023-06-26T15:16:58;30.60;67.40
2389;DHT22;1205;47.984;7.668;2023-06-26T15:19:24;30.60;66.80
2389;DHT22;1205;47.984;7.668;2023-06-26T15:21:49;30.70;66.80
2389;DHT22;1205;47.984;7.668;2023-06-26T15:24:15;30.70;66.30
2389;DHT22;1205;47.984;7.668;2023-06-26T15:26:40;30.60;66.70
2389;DHT22;1205;47.984;7.668;2023-06-26T15:29:06;30.50;67.10
2389;DHT22;1205;47.984;7.668;2023-06-26T15:31:31;30.40;67.10
2389;DHT22;1205;47.984;7.668;2023-06-26T15:33:57;30.50;67.00
2389;DHT22;1205;47.984;7.668;2023-06-26T15:36:23;30.50;67.50
2389;DHT22;1205;47.984;7.668;2023-06-26T15:38:48;30.60;68.00
2389;DHT22;1205;47.984;7.668;2023-06-26T15:41:14;30.70;67.60
2389;DHT22;1205;47.984;7.668;2023-06-26T15:43:39;30.60;66.70
2389;DHT22;1205;47.984;7.668;2023-06-26T15:46:07;30.50;67.20
2389;DHT22;1205;47.984;7.668;2023-06-26T15:48:32;30.50;67.60
2389;DHT22;1205;47.984;7.668;2023-06-26T15:50:58;30.40;67.60
2389;DHT22;1205;47.984;7.668;2023-06-26T15:53:37;30.40;67.60
2389;DHT22;1205;47.984;7.668;2023-06-26T15:56:11;30.40;67.50
2389;DHT22;1205;47.984;7.668;2023-06-26T15:58:37;30.10;67.20
2389;DHT22;1205;47.984;7.668;2023-06-26T16:01:09;30.30;67.50
2389;DHT22;1205;47.984;7.668;2023-06-26T16:03:35;30.10;67.60
2389;DHT22;1205;47.984;7.668;2023-06-26T16:06:01;30.10;67.50
2389;DHT22;1205;47.984;7.668;2023-06-26T16:08:26;29.90;67.90
2389;DHT22;1205;47.984;7.668;2023-06-26T16:10:53;29.80;68.30
2389;DHT22;1205;47.984;7.668;2023-06-26T16:13:18;29.70;67.90
2389;DHT22;1205;47.984;7.668;2023-06-26T16:15:47;29.60;67.80
2389;DHT22;1205;47.984;7.668;2023-06-26T16:18:12;29.50;68.20
2389;DHT22;1205;47.984;7.668;2023-06-26T16:20:38;29.50;68.70
2389;DHT22;1205;47.984;7.668;2023-06-26T16:23:03;29.30;68.60